createdAt,value
2024-01-17T00:00:14.250Z,59.72
2024-01-17T00:01:14.224Z,59.70
2024-01-17T00:02:14.161Z,60.24
2024-01-17T00:03:14.252Z,67.72
2024-01-17T00:04:14.134Z,59.71
2024-01-17T00:05:14.134Z,69.46
2024-01-17T00:06:14.193Z,70.39
2024-01-17T00:07:14.230Z,62.75
2024-01-17T00:08:14.118Z,65.72
2024-01-17T00:09:14.112Z,59.53
2024-01-17T00:10:14.086Z,60.29
2024-01-17T00:11:14.120Z,67.20
2024-01-17T00:12:14.181Z,62.99
2024-01-17T00:13:14.063Z,64.33
2024-01-17T00:14:14.082Z,63.73
2024-01-17T00:15:14.072Z,65.34
2024-01-17T00:16:14.075Z,63.49
2024-01-17T00:17:14.082Z,59.77
2024-01-17T00:18:14.144Z,63.89
2024-01-17T00:19:14.222Z,62.01
2024-01-17T00:20:14.043Z,64.20
2024-01-17T00:21:14.013Z,59.46
2024-01-17T00:22:14.036Z,59.59
2024-01-17T00:23:14.036Z,65.86
2024-01-17T00:24:14.027Z,63.06
2024-01-17T00:25:13.997Z,66.18
2024-01-17T00:26:13.991Z,60.90
2024-01-17T00:27:14.005Z,63.93
2024-01-17T00:28:14.019Z,69.48
2024-01-17T00:29:13.986Z,60.00
2024-01-17T00:30:14.101Z,64.36
2024-01-17T00:31:14.000Z,64.63
2024-01-17T00:32:13.990Z,64.85
2024-01-17T00:33:14.088Z,63.86
2024-01-17T00:34:14.090Z,69.54
2024-01-17T00:35:13.992Z,62.77
2024-01-17T00:36:14.026Z,61.25
2024-01-17T00:37:13.957Z,69.77
2024-01-17T00:38:13.989Z,60.27
2024-01-17T00:39:14.030Z,68.90
2024-01-17T00:40:13.927Z,61.16
2024-01-17T00:41:13.936Z,60.32
2024-01-17T00:42:13.945Z,63.72
2024-01-17T00:43:13.973Z,63.76
2024-01-17T00:44:13.930Z,60.08
2024-01-17T00:45:13.992Z,69.70
2024-01-17T00:46:13.918Z,64.38
2024-01-17T00:47:14.058Z,59.92
2024-01-17T00:48:13.978Z,63.82
2024-01-17T00:49:13.909Z,60.13
2024-01-17T00:50:13.873Z,59.97
2024-01-17T00:51:13.986Z,60.21
2024-01-17T00:52:13.887Z,60.28
2024-01-17T00:53:13.873Z,63.35
2024-01-17T00:54:13.873Z,73.05
2024-01-17T00:55:13.869Z,61.34
2024-01-17T00:56:13.829Z,62.50
2024-01-17T00:57:13.836Z,60.44
2024-01-17T00:58:13.840Z,67.20
2024-01-17T00:59:13.871Z,76.97
2024-01-17T01:00:13.841Z,61.86
2024-01-17T01:01:13.876Z,67.35
2024-01-17T01:02:13.811Z,67.10
2024-01-17T01:03:13.886Z,66.73
2024-01-17T01:04:13.854Z,60.10
2024-01-17T01:05:13.812Z,60.20
2024-01-17T01:06:13.810Z,62.97
2024-01-17T01:07:13.885Z,60.19
2024-01-17T01:08:13.807Z,67.54
2024-01-17T01:09:13.978Z,62.17
2024-01-17T01:10:13.791Z,66.16
2024-01-17T01:11:13.796Z,67.16
2024-01-17T01:12:13.804Z,65.78
2024-01-17T01:13:13.819Z,60.76
2024-01-17T01:14:13.791Z,60.51
2024-01-17T01:15:13.792Z,63.61
2024-01-17T01:16:13.758Z,64.90
2024-01-17T01:17:13.732Z,60.61
2024-01-17T01:18:13.936Z,60.74
2024-01-17T01:19:13.853Z,63.49
2024-01-17T01:20:13.744Z,60.57
2024-01-17T01:21:13.722Z,60.36
2024-01-17T01:22:13.705Z,60.47
2024-01-17T01:23:13.816Z,65.07
2024-01-17T01:24:13.748Z,60.57
2024-01-17T01:25:13.716Z,59.99
2024-01-17T01:26:13.703Z,63.39
2024-01-17T01:27:13.792Z,68.75
2024-01-17T01:28:13.728Z,64.54
2024-01-17T01:29:13.683Z,62.91
2024-01-17T01:30:13.809Z,60.65
2024-01-17T01:31:13.716Z,66.71
2024-01-17T01:32:13.657Z,60.43
2024-01-17T01:33:13.765Z,69.16
2024-01-17T01:34:16.327Z,60.84
2024-01-17T01:35:14.710Z,67.38
2024-01-17T01:36:13.710Z,66.67
2024-01-17T01:37:13.648Z,60.53
2024-01-17T01:38:13.657Z,63.52
2024-01-17T01:39:13.750Z,66.77
2024-01-17T01:40:13.665Z,64.80
2024-01-17T01:41:13.677Z,60.08
2024-01-17T01:42:13.698Z,66.93
2024-01-17T01:43:13.636Z,60.13
2024-01-17T01:44:13.636Z,60.50
2024-01-17T01:45:13.694Z,66.46
2024-01-17T01:46:13.640Z,59.63
2024-01-17T01:47:13.625Z,59.61
2024-01-17T01:48:13.685Z,59.97
2024-01-17T01:49:13.817Z,60.33
2024-01-17T01:50:13.619Z,63.27
2024-01-17T01:51:13.647Z,63.65
2024-01-17T01:52:13.576Z,59.84
2024-01-17T01:53:13.580Z,65.26
2024-01-17T01:54:13.635Z,65.27
2024-01-17T01:55:13.682Z,63.37
2024-01-17T01:56:13.583Z,72.64
2024-01-17T01:57:13.614Z,59.85
2024-01-17T01:58:13.543Z,68.63
2024-01-17T01:59:13.549Z,63.16
2024-01-17T02:00:13.598Z,64.28
2024-01-17T02:01:13.605Z,66.05
2024-01-17T02:02:13.561Z,60.09
2024-01-17T02:03:13.588Z,64.61
2024-01-17T02:04:13.614Z,59.70
2024-01-17T02:05:13.590Z,67.81
2024-01-17T02:06:13.600Z,65.60
2024-01-17T02:07:13.521Z,60.56
2024-01-17T02:08:13.534Z,63.70
2024-01-17T02:09:13.524Z,70.26
2024-01-17T02:10:13.521Z,69.56
2024-01-17T02:11:13.608Z,67.48
2024-01-17T02:12:13.549Z,70.71
2024-01-17T02:13:13.504Z,63.52
2024-01-17T02:14:13.501Z,68.91
2024-01-17T02:15:13.546Z,68.87
2024-01-17T02:16:13.501Z,70.17
2024-01-17T02:17:13.474Z,63.16
2024-01-17T02:18:13.533Z,60.80
2024-01-17T02:19:13.495Z,73.12
2024-01-17T02:20:13.497Z,74.51
2024-01-17T02:21:13.542Z,66.51
2024-01-17T02:22:13.442Z,68.55
2024-01-17T02:23:13.449Z,67.43
2024-01-17T02:24:13.452Z,66.64
2024-01-17T02:25:13.425Z,61.88
2024-01-17T02:26:13.447Z,65.73
2024-01-17T02:27:13.550Z,63.80
2024-01-17T02:28:13.433Z,60.02
2024-01-17T02:29:13.427Z,65.02
2024-01-17T02:30:13.542Z,72.99
2024-01-17T02:31:13.508Z,66.36
2024-01-17T02:32:13.372Z,63.64
2024-01-17T02:33:13.506Z,60.43
2024-01-17T02:34:13.589Z,68.32
2024-01-17T02:35:13.392Z,59.73
2024-01-17T02:36:13.538Z,59.58
2024-01-17T02:37:13.359Z,59.60
2024-01-17T02:38:13.352Z,67.80
2024-01-17T02:39:13.460Z,61.41
2024-01-17T02:40:13.391Z,61.86
2024-01-17T02:41:13.369Z,60.40
2024-01-17T02:42:13.483Z,60.18
2024-01-17T02:43:13.346Z,60.04
2024-01-17T02:44:13.346Z,60.26
2024-01-17T02:45:13.418Z,64.31
2024-01-17T02:46:13.337Z,61.37
2024-01-17T02:47:13.336Z,60.66
2024-01-17T02:48:13.391Z,67.17
2024-01-17T02:49:13.377Z,66.36
2024-01-17T02:50:13.306Z,62.62
2024-01-17T02:51:13.374Z,60.34
2024-01-17T02:52:13.342Z,66.77
2024-01-17T02:53:13.304Z,67.38
2024-01-17T02:54:13.289Z,67.54
2024-01-17T02:55:13.300Z,70.35
2024-01-17T02:56:13.282Z,64.47
2024-01-17T02:57:13.350Z,60.30
2024-01-17T02:58:13.301Z,60.98
2024-01-17T02:59:13.357Z,61.04
2024-01-17T03:00:13.349Z,60.94
2024-01-17T03:01:13.310Z,61.21
2024-01-17T03:02:13.254Z,60.85
2024-01-17T03:03:13.349Z,65.07
2024-01-17T03:04:13.251Z,68.25
2024-01-17T03:05:13.278Z,67.11
2024-01-17T03:06:13.377Z,65.05
2024-01-17T03:07:13.275Z,64.30
2024-01-17T03:08:13.231Z,60.33
2024-01-17T03:09:13.313Z,65.69
2024-01-17T03:10:13.261Z,61.95
2024-01-17T03:11:13.237Z,64.35
2024-01-17T03:12:13.243Z,61.55
2024-01-17T03:13:13.220Z,64.38
2024-01-17T03:14:13.208Z,61.24
2024-01-17T03:15:13.310Z,61.44
2024-01-17T03:16:13.217Z,61.10
2024-01-17T03:17:13.201Z,61.14
2024-01-17T03:18:13.284Z,61.39
2024-01-17T03:19:13.361Z,66.59
2024-01-17T03:20:13.167Z,63.93
2024-01-17T03:21:13.198Z,61.52
2024-01-17T03:22:13.200Z,68.44
2024-01-17T03:23:13.191Z,61.48
2024-01-17T03:24:13.188Z,61.36
2024-01-17T03:25:13.136Z,61.32
2024-01-17T03:26:13.153Z,61.28
2024-01-17T03:27:13.168Z,61.91
2024-01-17T03:28:13.184Z,67.84
2024-01-17T03:29:13.129Z,64.20
2024-01-17T03:30:13.464Z,61.52
2024-01-17T03:31:13.268Z,64.10
2024-01-17T03:32:13.148Z,65.38
2024-01-17T03:33:13.203Z,61.44
2024-01-17T03:34:13.174Z,66.37
2024-01-17T03:35:13.108Z,61.18
2024-01-17T03:36:13.322Z,61.19
2024-01-17T03:37:13.086Z,66.55
2024-01-17T03:38:13.100Z,61.45
2024-01-17T03:39:13.119Z,64.10
2024-01-17T03:40:13.106Z,71.28
2024-01-17T03:41:13.127Z,67.31
2024-01-17T03:42:13.093Z,61.26
2024-01-17T03:43:13.099Z,61.48
2024-01-17T03:44:13.070Z,68.21
2024-01-17T03:45:13.056Z,61.35
2024-01-17T03:46:13.062Z,64.81
2024-01-17T03:47:13.160Z,64.53
2024-01-17T03:48:13.149Z,61.43
2024-01-17T03:49:13.201Z,61.33
2024-01-17T03:50:13.028Z,61.98
2024-01-17T03:51:13.084Z,65.21
2024-01-17T03:52:13.074Z,66.92
2024-01-17T03:53:13.042Z,61.67
2024-01-17T03:54:13.077Z,64.62
2024-01-17T03:55:13.063Z,70.90
2024-01-17T03:56:13.032Z,61.49
2024-01-17T03:57:13.095Z,68.44
2024-01-17T03:58:13.029Z,64.61
2024-01-17T03:59:12.987Z,64.08
2024-01-17T04:00:13.063Z,61.53
2024-01-17T04:01:13.066Z,68.72
2024-01-17T04:02:13.001Z,65.98
2024-01-17T04:03:13.193Z,64.52
2024-01-17T04:04:12.997Z,62.98
2024-01-17T04:05:13.012Z,73.80
2024-01-17T04:06:13.025Z,64.19
2024-01-17T04:07:13.032Z,68.51
2024-01-17T04:08:12.932Z,61.85
2024-01-17T04:09:13.020Z,71.04
2024-01-17T04:10:12.931Z,66.50
2024-01-17T04:11:12.944Z,72.66
2024-01-17T04:12:12.964Z,73.61
2024-01-17T04:13:12.972Z,71.85
2024-01-17T04:14:12.966Z,69.36
2024-01-17T04:15:13.135Z,67.28
2024-01-17T04:16:12.933Z,77.92
2024-01-17T04:17:12.937Z,70.06
2024-01-17T04:18:13.074Z,73.18
2024-01-17T04:19:13.118Z,66.42
2024-01-17T04:20:12.912Z,73.52
2024-01-17T04:21:13.966Z,70.41
2024-01-17T04:22:12.916Z,75.05
2024-01-17T04:23:12.925Z,72.80
2024-01-17T04:24:12.934Z,65.62
2024-01-17T04:25:13.491Z,69.47
2024-01-17T04:26:12.880Z,73.99
2024-01-17T04:27:13.009Z,66.66
2024-01-17T04:28:12.925Z,71.24
2024-01-17T04:29:12.854Z,65.61
2024-01-17T04:30:13.033Z,70.79
2024-01-17T04:31:12.871Z,69.74
2024-01-17T04:32:12.842Z,71.41
2024-01-17T04:33:12.892Z,70.44
2024-01-17T04:34:12.949Z,69.30
2024-01-17T04:35:12.827Z,70.94
2024-01-17T04:36:12.842Z,69.37
2024-01-17T04:37:12.803Z,67.68
2024-01-17T04:38:12.800Z,71.61
2024-01-17T04:39:13.172Z,72.29
2024-01-17T04:40:12.783Z,74.59
2024-01-17T04:41:12.769Z,66.88
2024-01-17T04:42:12.872Z,64.98
2024-01-17T04:43:12.808Z,71.23
2024-01-17T04:44:12.807Z,69.40
2024-01-17T04:45:12.774Z,68.82
2024-01-17T04:46:12.772Z,68.51
2024-01-17T04:47:12.720Z,73.06
2024-01-17T04:48:12.959Z,73.64
2024-01-17T04:49:12.895Z,70.55
2024-01-17T04:50:12.849Z,67.11
2024-01-17T04:51:13.915Z,73.90
2024-01-17T04:52:13.711Z,63.75
2024-01-17T04:53:12.701Z,70.20
2024-01-17T04:54:12.727Z,67.75
2024-01-17T04:55:12.710Z,70.11
2024-01-17T04:56:12.778Z,63.07
2024-01-17T04:57:12.680Z,71.15
2024-01-17T04:58:12.674Z,68.99
2024-01-17T04:59:12.701Z,70.30
2024-01-17T05:00:12.713Z,72.30
2024-01-17T05:01:12.696Z,72.49
2024-01-17T05:02:12.694Z,68.52
2024-01-17T05:03:12.748Z,63.31
2024-01-17T05:04:12.649Z,75.62
2024-01-17T05:05:12.800Z,70.71
2024-01-17T05:06:12.786Z,68.70
2024-01-17T05:07:12.748Z,69.45
2024-01-17T05:08:12.671Z,71.26
2024-01-17T05:09:12.634Z,78.00
2024-01-17T05:10:12.646Z,72.00
2024-01-17T05:11:12.611Z,77.13
2024-01-17T05:12:12.975Z,68.29
2024-01-17T05:13:13.623Z,65.17
2024-01-17T05:14:12.630Z,70.97
2024-01-17T05:15:12.605Z,62.23
2024-01-17T05:16:12.601Z,71.63
2024-01-17T05:17:12.626Z,75.58
2024-01-17T05:18:12.728Z,71.76
2024-01-17T05:19:16.092Z,70.61
2024-01-17T05:20:12.579Z,78.58
2024-01-17T05:21:12.607Z,67.72
2024-01-17T05:22:12.582Z,73.16
2024-01-17T05:23:13.662Z,73.48
2024-01-17T05:24:12.656Z,78.40
2024-01-17T05:25:12.559Z,67.70
2024-01-17T05:26:12.552Z,75.28
2024-01-17T05:27:12.575Z,70.26
2024-01-17T05:28:12.560Z,69.41
2024-01-17T05:29:12.568Z,69.24
2024-01-17T05:30:15.967Z,71.26
2024-01-17T05:31:13.603Z,66.79
2024-01-17T05:32:12.519Z,72.47
2024-01-17T05:33:12.544Z,71.57
2024-01-17T05:34:12.616Z,72.50
2024-01-17T05:35:12.487Z,70.06
2024-01-17T05:36:12.549Z,77.24
2024-01-17T05:37:12.521Z,76.40
2024-01-17T05:38:12.491Z,75.94
2024-01-17T05:39:12.633Z,80.59
2024-01-17T05:40:12.468Z,72.54
2024-01-17T05:41:12.505Z,71.08
2024-01-17T05:42:12.578Z,76.69
2024-01-17T05:43:12.448Z,77.42
2024-01-17T05:44:15.507Z,70.65
2024-01-17T05:45:13.567Z,72.85
2024-01-17T05:46:12.478Z,75.89
2024-01-17T05:47:12.453Z,67.19
2024-01-17T05:48:12.532Z,72.50
2024-01-17T05:49:12.529Z,73.70
2024-01-17T05:50:12.424Z,63.85
2024-01-17T05:51:12.523Z,78.91
2024-01-17T05:52:12.464Z,75.04
2024-01-17T05:53:12.403Z,69.62
2024-01-17T05:54:12.485Z,73.91
2024-01-17T05:55:12.406Z,73.15
2024-01-17T05:56:12.421Z,74.32
2024-01-17T05:57:12.396Z,67.09
2024-01-17T05:58:12.399Z,71.23
2024-01-17T05:59:12.374Z,80.64
2024-01-17T06:00:12.624Z,73.79
2024-01-17T06:01:12.438Z,74.64
2024-01-17T06:02:12.371Z,74.17
2024-01-17T06:03:12.415Z,75.09
2024-01-17T06:04:12.382Z,79.21
2024-01-17T06:05:12.377Z,77.19
2024-01-17T06:06:12.382Z,69.84
2024-01-17T06:07:12.495Z,76.81
2024-01-17T06:08:12.318Z,72.92
2024-01-17T06:09:12.345Z,73.05
2024-01-17T06:10:12.341Z,72.00
2024-01-17T06:11:12.450Z,70.86
2024-01-17T06:12:12.361Z,74.20
2024-01-17T06:13:12.310Z,81.17
2024-01-17T06:14:14.760Z,77.93
2024-01-17T06:15:12.309Z,71.37
2024-01-17T06:16:12.309Z,75.93
2024-01-17T06:17:12.347Z,72.46
2024-01-17T06:18:12.380Z,76.97
2024-01-17T06:19:12.337Z,70.11
2024-01-17T06:20:12.278Z,80.55
2024-01-17T06:21:12.354Z,73.25
2024-01-17T06:22:12.293Z,70.67
2024-01-17T06:23:12.322Z,71.29
2024-01-17T06:24:12.307Z,73.38
2024-01-17T06:25:12.253Z,72.36
2024-01-17T06:26:12.267Z,78.16
2024-01-17T06:27:12.326Z,71.32
2024-01-17T06:28:12.233Z,78.27
2024-01-17T06:29:12.255Z,76.16
2024-01-17T06:30:12.337Z,71.20
2024-01-17T06:31:12.325Z,75.56
2024-01-17T06:32:12.234Z,74.57
2024-01-17T06:33:12.305Z,75.23
2024-01-17T06:34:12.367Z,81.88
2024-01-17T06:35:12.213Z,77.95
2024-01-17T06:36:12.295Z,74.76
2024-01-17T06:37:12.603Z,71.08
2024-01-17T06:38:12.175Z,67.66
2024-01-17T06:39:12.249Z,79.96
2024-01-17T06:40:12.261Z,75.04
2024-01-17T06:41:12.168Z,81.04
2024-01-17T06:42:12.314Z,75.48
2024-01-17T06:43:12.167Z,76.28
2024-01-17T06:44:12.151Z,75.57
2024-01-17T06:45:12.410Z,80.29
2024-01-17T06:46:12.162Z,75.73
2024-01-17T06:47:12.143Z,77.48
2024-01-17T06:48:12.351Z,75.96
2024-01-17T06:49:12.209Z,77.55
2024-01-17T06:50:12.139Z,70.63
2024-01-17T06:51:12.170Z,79.09
2024-01-17T06:52:12.160Z,71.86
2024-01-17T06:53:12.116Z,71.06
2024-01-17T06:54:12.222Z,78.47
2024-01-17T06:55:13.446Z,70.34
2024-01-17T06:56:12.097Z,75.60
2024-01-17T06:57:12.128Z,76.93
2024-01-17T06:58:12.100Z,73.14
2024-01-17T06:59:12.089Z,66.44
2024-01-17T07:00:12.173Z,73.06
2024-01-17T07:01:12.156Z,71.97
2024-01-17T07:02:12.044Z,73.58
2024-01-17T07:03:12.214Z,72.88
2024-01-17T07:04:12.097Z,72.37
2024-01-17T07:05:12.133Z,76.40
2024-01-17T07:06:12.362Z,76.96
2024-01-17T07:07:12.029Z,78.35
2024-01-17T07:08:12.133Z,70.16
2024-01-17T07:09:12.071Z,78.79
2024-01-17T07:10:12.034Z,73.36
2024-01-17T07:11:12.021Z,74.07
2024-01-17T07:12:12.061Z,74.75
2024-01-17T07:13:12.049Z,67.27
2024-01-17T07:14:12.029Z,68.57
2024-01-17T07:15:12.096Z,74.05
2024-01-17T07:16:11.997Z,67.50
2024-01-17T07:17:12.030Z,75.36
2024-01-17T07:18:12.097Z,72.92
2024-01-17T07:19:11.985Z,74.75
2024-01-17T07:20:12.006Z,69.16
2024-01-17T07:21:11.995Z,73.72
2024-01-17T07:22:11.973Z,78.96
2024-01-17T07:23:12.002Z,78.23
2024-01-17T07:24:12.232Z,72.76
2024-01-17T07:25:11.946Z,72.16
2024-01-17T07:26:11.954Z,74.49
2024-01-17T07:27:12.021Z,69.11
2024-01-17T07:28:11.968Z,73.15
2024-01-17T07:29:12.003Z,74.94
2024-01-17T07:30:12.015Z,72.63
2024-01-17T07:31:11.901Z,74.33
2024-01-17T07:32:11.989Z,75.13
2024-01-17T07:33:12.043Z,76.01
2024-01-17T07:34:12.029Z,79.92
2024-01-17T07:35:11.911Z,70.88
2024-01-17T07:36:12.195Z,71.35
2024-01-17T07:37:15.156Z,73.06
2024-01-17T07:38:12.906Z,73.64
2024-01-17T07:39:12.006Z,74.97
2024-01-17T07:40:11.997Z,72.92
2024-01-17T07:41:11.902Z,74.55
2024-01-17T07:42:11.951Z,77.89
2024-01-17T07:43:11.852Z,69.43
2024-01-17T07:44:11.854Z,71.21
2024-01-17T07:45:12.019Z,72.17
2024-01-17T07:46:11.850Z,75.64
2024-01-17T07:47:11.830Z,74.91
2024-01-17T07:48:12.018Z,68.81
2024-01-17T07:49:11.997Z,78.78
2024-01-17T07:50:11.851Z,70.63
2024-01-17T07:51:11.901Z,65.98
2024-01-17T07:52:11.836Z,71.34
2024-01-17T07:53:11.794Z,71.98
2024-01-17T07:54:11.833Z,70.36
2024-01-17T07:55:11.806Z,72.65
2024-01-17T07:56:11.803Z,72.28
2024-01-17T07:57:11.828Z,70.91
2024-01-17T07:58:11.781Z,74.55
2024-01-17T07:59:11.794Z,70.32
2024-01-17T08:00:11.858Z,74.98
2024-01-17T08:01:11.811Z,72.19
2024-01-17T08:02:11.780Z,70.06
2024-01-17T08:03:11.906Z,72.59
2024-01-17T08:04:11.818Z,75.76
2024-01-17T08:05:11.802Z,72.49
2024-01-17T08:06:11.790Z,72.70
2024-01-17T08:07:11.811Z,66.40
2024-01-17T08:08:11.721Z,68.10
2024-01-17T08:09:11.808Z,71.24
2024-01-17T08:10:11.718Z,72.85
2024-01-17T08:11:11.731Z,75.73
2024-01-17T08:12:11.735Z,75.66
2024-01-17T08:13:11.715Z,66.21
2024-01-17T08:14:11.732Z,75.94
2024-01-17T08:15:11.762Z,72.21
2024-01-17T08:16:11.741Z,71.36
2024-01-17T08:17:11.733Z,74.75
2024-01-17T08:18:11.838Z,73.11
2024-01-17T08:19:11.819Z,69.14
2024-01-17T08:20:11.741Z,68.83
2024-01-17T08:21:11.779Z,76.80
2024-01-17T08:22:11.654Z,75.11
2024-01-17T08:23:11.676Z,72.52
2024-01-17T08:24:11.740Z,69.12
2024-01-17T08:25:11.683Z,77.78
2024-01-17T08:26:11.685Z,71.00
2024-01-17T08:27:11.660Z,71.75
2024-01-17T08:28:11.647Z,71.77
2024-01-17T08:29:11.820Z,69.59
2024-01-17T08:30:12.103Z,68.10
2024-01-17T08:31:11.626Z,70.95
2024-01-17T08:32:11.650Z,71.29
2024-01-17T08:33:11.678Z,73.90
2024-01-17T08:34:11.822Z,72.58
2024-01-17T08:35:11.680Z,73.87
2024-01-17T08:36:11.661Z,71.66
2024-01-17T08:37:11.613Z,77.79
2024-01-17T08:38:11.605Z,67.56
2024-01-17T08:39:11.663Z,72.81
2024-01-17T08:40:11.596Z,73.64
2024-01-17T08:41:11.584Z,74.40
2024-01-17T08:42:11.734Z,69.16
2024-01-17T08:43:11.559Z,76.67
2024-01-17T08:44:11.576Z,72.80
2024-01-17T08:45:11.785Z,71.33
2024-01-17T08:46:11.563Z,73.52
2024-01-17T08:47:11.679Z,71.27
2024-01-17T08:48:11.623Z,73.27
2024-01-17T08:49:11.609Z,72.32
2024-01-17T08:50:11.537Z,71.74
2024-01-17T08:51:11.632Z,75.75
2024-01-17T08:52:11.534Z,69.87
2024-01-17T08:53:11.541Z,74.95
2024-01-17T08:54:11.683Z,67.25
2024-01-17T08:55:11.528Z,68.37
2024-01-17T08:56:11.530Z,74.92
2024-01-17T08:57:12.547Z,74.90
2024-01-17T08:58:11.517Z,69.95
2024-01-17T08:59:11.541Z,74.14
2024-01-17T09:00:11.532Z,69.93
2024-01-17T09:01:11.578Z,76.86
2024-01-17T09:02:11.495Z,69.97
2024-01-17T09:03:11.522Z,68.33
2024-01-17T09:04:11.489Z,66.57
2024-01-17T09:05:11.522Z,71.55
2024-01-17T09:06:11.504Z,70.22
2024-01-17T09:07:11.527Z,72.46
2024-01-17T09:08:11.572Z,65.59
2024-01-17T09:09:11.538Z,73.09
2024-01-17T09:10:11.454Z,74.63
2024-01-17T09:11:11.463Z,73.61
2024-01-17T09:12:11.457Z,75.88
2024-01-17T09:13:11.544Z,71.78
2024-01-17T09:14:11.441Z,73.79
2024-01-17T09:15:11.445Z,67.11
2024-01-17T09:16:11.387Z,73.81
2024-01-17T09:17:11.414Z,75.99
2024-01-17T09:18:11.450Z,72.81
2024-01-17T09:19:11.511Z,73.85
2024-01-17T09:20:11.465Z,68.73
2024-01-17T09:21:11.405Z,73.65
2024-01-17T09:22:11.364Z,78.14
2024-01-17T09:23:11.431Z,75.97
2024-01-17T09:24:11.416Z,70.06
2024-01-17T09:25:11.378Z,74.31
2024-01-17T09:26:11.338Z,73.13
2024-01-17T09:27:11.492Z,71.67
2024-01-17T09:28:11.368Z,77.51
2024-01-17T09:29:11.418Z,71.53
2024-01-17T09:30:11.367Z,74.47
2024-01-17T09:31:11.334Z,70.83
2024-01-17T09:32:15.344Z,72.45
2024-01-17T09:33:12.520Z,72.15
2024-01-17T09:34:11.398Z,71.41
2024-01-17T09:35:11.297Z,78.64
2024-01-17T09:36:11.354Z,70.53
2024-01-17T09:37:11.325Z,74.78
2024-01-17T09:38:11.294Z,71.78
2024-01-17T09:39:11.525Z,78.63
2024-01-17T09:40:11.331Z,72.26
2024-01-17T09:41:11.374Z,74.38
2024-01-17T09:42:11.359Z,73.88
2024-01-17T09:43:12.893Z,68.41
2024-01-17T09:44:12.268Z,76.11
2024-01-17T09:45:11.431Z,77.01
2024-01-17T09:46:11.287Z,78.56
2024-01-17T09:47:11.283Z,66.18
2024-01-17T09:48:11.331Z,74.19
2024-01-17T09:49:11.649Z,71.11
2024-01-17T09:50:11.315Z,71.63
2024-01-17T09:51:11.357Z,73.93
2024-01-17T09:52:11.270Z,72.43
2024-01-17T09:53:11.264Z,73.50
2024-01-17T09:54:12.758Z,73.38
2024-01-17T09:55:11.248Z,71.85
2024-01-17T09:56:11.228Z,75.15
2024-01-17T09:57:11.285Z,68.50
2024-01-17T09:58:11.218Z,74.37
2024-01-17T09:59:11.209Z,75.56
2024-01-17T10:00:12.986Z,71.48
2024-01-17T10:01:11.250Z,76.79
2024-01-17T10:02:11.214Z,71.95
2024-01-17T10:03:11.280Z,68.79
2024-01-17T10:04:11.224Z,74.81
2024-01-17T10:05:11.213Z,70.69
2024-01-17T10:06:11.265Z,72.20
2024-01-17T10:07:11.169Z,69.54
2024-01-17T10:08:12.177Z,71.13
2024-01-17T10:09:11.333Z,67.65
2024-01-17T10:10:11.170Z,69.96
2024-01-17T10:11:11.198Z,71.26
2024-01-17T10:12:11.178Z,73.39
2024-01-17T10:13:11.146Z,75.92
2024-01-17T10:14:11.130Z,78.38
2024-01-17T10:15:11.194Z,72.05
2024-01-17T10:16:11.187Z,69.46
2024-01-17T10:17:11.135Z,73.16
2024-01-17T10:18:11.207Z,67.78
2024-01-17T10:19:11.319Z,73.35
2024-01-17T10:20:11.179Z,66.34
2024-01-17T10:21:11.238Z,68.43
2024-01-17T10:22:11.119Z,74.41
2024-01-17T10:23:11.101Z,73.29
2024-01-17T10:24:11.110Z,72.79
2024-01-17T10:25:11.084Z,67.27
2024-01-17T10:26:11.065Z,77.28
2024-01-17T10:27:11.188Z,70.29
2024-01-17T10:28:11.050Z,76.34
2024-01-17T10:29:11.050Z,74.99
2024-01-17T10:30:11.063Z,68.36
2024-01-17T10:31:11.041Z,71.34
2024-01-17T10:32:11.096Z,67.74
2024-01-17T10:33:11.147Z,72.93
2024-01-17T10:34:11.229Z,77.13
2024-01-17T10:35:11.108Z,66.54
2024-01-17T10:36:11.054Z,75.00
2024-01-17T10:37:11.049Z,66.61
2024-01-17T10:38:11.019Z,70.08
2024-01-17T10:39:11.037Z,71.21
2024-01-17T10:40:11.106Z,73.93
2024-01-17T10:41:11.013Z,73.94
2024-01-17T10:42:11.010Z,69.79
2024-01-17T10:43:11.434Z,74.14
2024-01-17T10:44:10.975Z,70.54
2024-01-17T10:45:11.049Z,71.65
2024-01-17T10:46:10.989Z,72.90
2024-01-17T10:47:11.794Z,73.70
2024-01-17T10:48:12.075Z,72.00
2024-01-17T10:49:11.141Z,72.94
2024-01-17T10:50:10.977Z,78.72
2024-01-17T10:51:10.985Z,69.83
2024-01-17T10:52:10.947Z,76.10
2024-01-17T10:53:10.962Z,72.29
2024-01-17T10:54:10.985Z,71.52
2024-01-17T10:55:10.947Z,69.27
2024-01-17T10:56:10.944Z,69.82
2024-01-17T10:57:10.987Z,65.21
2024-01-17T10:58:10.964Z,74.42
2024-01-17T10:59:10.975Z,68.00
2024-01-17T11:00:10.995Z,72.14
2024-01-17T11:01:10.951Z,74.95
2024-01-17T11:02:10.910Z,71.78
2024-01-17T11:03:11.079Z,75.17
2024-01-17T11:04:10.984Z,70.18
2024-01-17T11:05:10.900Z,77.49
2024-01-17T11:06:10.912Z,70.21
2024-01-17T11:07:10.886Z,76.54
2024-01-17T11:08:10.906Z,71.80
2024-01-17T11:09:10.946Z,69.76
2024-01-17T11:10:10.894Z,73.37
2024-01-17T11:11:10.834Z,72.56
2024-01-17T11:12:11.928Z,75.74
2024-01-17T11:13:10.905Z,76.64
2024-01-17T11:14:10.874Z,76.99
2024-01-17T11:15:10.885Z,70.02
2024-01-17T11:16:10.861Z,75.91
2024-01-17T11:17:15.063Z,70.05
2024-01-17T11:18:11.888Z,68.23
2024-01-17T11:19:11.012Z,73.07
2024-01-17T11:20:10.846Z,69.91
2024-01-17T11:21:10.856Z,75.09
2024-01-17T11:22:10.797Z,71.75
2024-01-17T11:23:10.821Z,71.03
2024-01-17T11:24:10.955Z,73.29
2024-01-17T11:25:10.779Z,74.94
2024-01-17T11:26:10.814Z,76.07
2024-01-17T11:27:10.863Z,69.23
2024-01-17T11:28:10.801Z,71.97
2024-01-17T11:29:10.809Z,76.41
2024-01-17T11:30:10.827Z,72.04
2024-01-17T11:31:10.828Z,72.08
2024-01-17T11:32:10.801Z,77.30
2024-01-17T11:33:10.810Z,70.80
2024-01-17T11:34:10.874Z,74.63
2024-01-17T11:35:10.807Z,73.19
2024-01-17T11:36:10.813Z,70.39
2024-01-17T11:37:10.749Z,75.85
2024-01-17T11:38:10.735Z,71.84
2024-01-17T11:39:11.654Z,75.23
2024-01-17T11:40:10.767Z,70.32
2024-01-17T11:41:10.807Z,73.00
2024-01-17T11:42:10.729Z,75.69
2024-01-17T11:43:10.726Z,68.58
2024-01-17T11:44:10.721Z,76.76
2024-01-17T11:45:14.327Z,76.08
2024-01-17T11:46:10.905Z,78.82
2024-01-17T11:47:10.714Z,76.00
2024-01-17T11:48:10.726Z,75.69
2024-01-17T11:49:10.907Z,71.76
2024-01-17T11:50:10.672Z,68.95
2024-01-17T11:51:10.739Z,69.53
2024-01-17T11:52:10.702Z,78.14
2024-01-17T11:53:10.693Z,71.86
2024-01-17T11:54:10.684Z,73.14
2024-01-17T11:55:10.666Z,77.56
2024-01-17T11:56:10.778Z,77.10
2024-01-17T11:57:10.705Z,77.67
2024-01-17T11:58:10.659Z,74.45
2024-01-17T11:59:10.658Z,70.22
2024-01-17T12:00:10.702Z,70.77
2024-01-17T12:01:10.672Z,76.33
2024-01-17T12:02:10.713Z,78.76
2024-01-17T12:03:10.633Z,71.53
2024-01-17T12:04:10.619Z,73.69
2024-01-17T12:05:10.633Z,73.61
2024-01-17T12:06:10.710Z,79.59
2024-01-17T12:07:10.692Z,80.40
2024-01-17T12:08:10.694Z,78.23
2024-01-17T12:09:10.629Z,77.39
2024-01-17T12:10:10.586Z,80.06
2024-01-17T12:11:10.603Z,73.94
2024-01-17T12:12:10.596Z,80.31
2024-01-17T12:13:10.725Z,76.35
2024-01-17T12:14:10.580Z,75.34
2024-01-17T12:15:10.593Z,78.92
2024-01-17T12:16:10.601Z,75.62
2024-01-17T12:17:10.560Z,76.30
2024-01-17T12:18:10.641Z,75.42
2024-01-17T12:19:10.774Z,73.58
2024-01-17T12:20:10.564Z,76.80
2024-01-17T12:21:10.578Z,76.21
2024-01-17T12:22:10.556Z,73.42
2024-01-17T12:23:10.542Z,72.66
2024-01-17T12:24:10.595Z,69.57
2024-01-17T12:25:10.509Z,76.72
2024-01-17T12:26:10.545Z,78.13
2024-01-17T12:27:10.541Z,71.12
2024-01-17T12:28:10.521Z,69.49
2024-01-17T12:29:10.646Z,78.25
2024-01-17T12:30:10.543Z,72.53
2024-01-17T12:31:10.513Z,77.36
2024-01-17T12:32:10.513Z,77.06
2024-01-17T12:33:10.571Z,69.30
2024-01-17T12:34:10.708Z,74.48
2024-01-17T12:35:11.539Z,79.08
2024-01-17T12:36:10.606Z,76.47
2024-01-17T12:37:10.457Z,69.58
2024-01-17T12:38:10.483Z,68.82
2024-01-17T12:39:10.609Z,69.48
2024-01-17T12:40:10.482Z,70.10
2024-01-17T12:41:10.450Z,73.84
2024-01-17T12:42:10.521Z,70.61
2024-01-17T12:43:10.446Z,68.39
2024-01-17T12:44:10.466Z,72.25
2024-01-17T12:45:10.526Z,72.81
2024-01-17T12:46:10.432Z,73.66
2024-01-17T12:47:10.429Z,73.59
2024-01-17T12:48:10.500Z,73.60
2024-01-17T12:49:10.576Z,70.32
2024-01-17T12:50:10.415Z,69.25
2024-01-17T12:51:10.397Z,74.49
2024-01-17T12:52:10.423Z,70.50